sensor_id;sensor_type;location;lat;lon;timestamp;pressure;altitude;pressure_sealevel;temperature;humidity
76603;BME280;65075;48.390;17.598;2023-08-20T00:00:11;100129.09;;;27.76;54.86
76603;BME280;65075;48.390;17.598;2023-08-20T00:02:37;100113.63;;;26.58;58.13
76603;BME280;65075;48.390;17.598;2023-08-20T00:05:06;100123.03;;;27.55;54.29
76603;BME280;65075;48.390;17.598;2023-08-20T00:07:32;100119.69;;;27.88;53.69
76603;BME280;65075;48.390;17.598;2023-08-20T00:09:58;100117.16;;;25.81;59.39
76603;BME280;65075;48.390;17.598;2023-08-20T00:12:24;100115.94;;;25.38;61.50
76603;BME280;65075;48.390;17.598;2023-08-20T00:15:02;100113.78;;;26.97;56.85
76603;BME280;65075;48.390;17.598;2023-08-20T00:17:37;100115.47;;;27.01;55.97
76603;BME280;65075;48.390;17.598;2023-08-20T00:20:06;100122.50;;;27.68;54.33
76603;BME280;65075;48.390;17.598;2023-08-20T00:22:41;100127.06;;;27.96;52.76
76603;BME280;65075;48.390;17.598;2023-08-20T00:25:08;100094.59;;;26.99;55.33
76603;BME280;65075;48.390;17.598;2023-08-20T00:27:33;100118.47;;;27.66;54.53
76603;BME280;65075;48.390;17.598;2023-08-20T00:29:59;100124.56;;;27.71;53.34
76603;BME280;65075;48.390;17.598;2023-08-20T00:32:24;100131.66;;;27.84;53.16
76603;BME280;65075;48.390;17.598;2023-08-20T00:34:50;100117.94;;;28.21;51.87
76603;BME280;65075;48.390;17.598;2023-08-20T00:37:16;100116.72;;;27.23;55.07
76603;BME280;65075;48.390;17.598;2023-08-20T00:39:41;100122.19;;;27.51;53.96
76603;BME280;65075;48.390;17.598;2023-08-20T00:42:07;100125.94;;;28.42;51.02
76603;BME280;65075;48.390;17.598;2023-08-20T00:44:34;100129.78;;;27.50;54.34
76603;BME280;65075;48.390;17.598;2023-08-20T00:47:01;100105.59;;;27.42;53.78
76603;BME280;65075;48.390;17.598;2023-08-20T00:49:28;100128.03;;;27.26;54.68
76603;BME280;65075;48.390;17.598;2023-08-20T00:51:54;100093.19;;;26.73;55.77
76603;BME280;65075;48.390;17.598;2023-08-20T00:54:20;100129.25;;;27.10;55.61
76603;BME280;65075;48.390;17.598;2023-08-20T00:56:49;100127.81;;;27.16;55.90
76603;BME280;65075;48.390;17.598;2023-08-20T00:59:15;100126.09;;;26.45;56.83
76603;BME280;65075;48.390;17.598;2023-08-20T01:01:41;100141.41;;;26.20;57.83
76603;BME280;65075;48.390;17.598;2023-08-20T01:04:07;100126.63;;;27.36;54.97
76603;BME280;65075;48.390;17.598;2023-08-20T01:12:10;100114.59;;;26.82;55.55
76603;BME280;65075;48.390;17.598;2023-08-20T01:14:35;100122.31;;;25.94;58.85
76603;BME280;65075;48.390;17.598;2023-08-20T01:17:01;100123.13;;;26.54;57.76
76603;BME280;65075;48.390;17.598;2023-08-20T01:19:27;100124.38;;;27.07;56.24
76603;BME280;65075;48.390;17.598;2023-08-20T01:30:14;100128.53;;;26.62;56.61
76603;BME280;65075;48.390;17.598;2023-08-20T01:32:41;100118.50;;;26.30;58.30
76603;BME280;65075;48.390;17.598;2023-08-20T01:35:14;100137.91;;;25.00;63.52
76603;BME280;65075;48.390;17.598;2023-08-20T01:37:40;100099.72;;;24.07;65.72
76603;BME280;65075;48.390;17.598;2023-08-20T01:40:07;100124.53;;;25.45;61.49
76603;BME280;65075;48.390;17.598;2023-08-20T01:42:39;100139.41;;;25.77;60.41
76603;BME280;65075;48.390;17.598;2023-08-20T01:45:06;100144.97;;;25.62;61.30
76603;BME280;65075;48.390;17.598;2023-08-20T01:47:34;100110.50;;;24.66;63.59
76603;BME280;65075;48.390;17.598;2023-08-20T01:49:59;100142.91;;;25.58;61.14
76603;BME280;65075;48.390;17.598;2023-08-20T01:52:25;100146.34;;;23.74;67.31
76603;BME280;65075;48.390;17.598;2023-08-20T01:54:51;100140.47;;;22.84;72.68
76603;BME280;65075;48.390;17.598;2023-08-20T01:57:17;100131.78;;;23.06;71.95
76603;BME280;65075;48.390;17.598;2023-08-20T01:59:43;100132.31;;;24.27;66.79
76603;BME280;65075;48.390;17.598;2023-08-20T02:02:08;100108.97;;;25.32;62.62
76603;BME280;65075;48.390;17.598;2023-08-20T02:04:34;100136.56;;;26.80;57.78
76603;BME280;65075;48.390;17.598;2023-08-20T02:07:00;100133.41;;;26.50;58.83
76603;BME280;65075;48.390;17.598;2023-08-20T02:09:25;100117.03;;;27.37;55.31
76603;BME280;65075;48.390;17.598;2023-08-20T02:11:51;100124.22;;;28.15;53.13
76603;BME280;65075;48.390;17.598;2023-08-20T02:14:17;100133.53;;;27.23;56.45
76603;BME280;65075;48.390;17.598;2023-08-20T02:16:43;100134.31;;;26.85;57.33
76603;BME280;65075;48.390;17.598;2023-08-20T02:19:09;100133.31;;;27.12;56.20
76603;BME280;65075;48.390;17.598;2023-08-20T02:21:35;100134.44;;;27.27;56.06
76603;BME280;65075;48.390;17.598;2023-08-20T02:24:01;100132.81;;;27.26;55.99
76603;BME280;65075;48.390;17.598;2023-08-20T02:26:26;100135.09;;;26.86;57.63
76603;BME280;65075;48.390;17.598;2023-08-20T02:28:52;100138.41;;;23.97;68.01
76603;BME280;65075;48.390;17.598;2023-08-20T02:31:17;100134.56;;;24.01;67.12
76603;BME280;65075;48.390;17.598;2023-08-20T02:33:43;100133.50;;;24.87;64.97
76603;BME280;65075;48.390;17.598;2023-08-20T02:36:08;100114.00;;;25.15;62.39
76603;BME280;65075;48.390;17.598;2023-08-20T02:38:34;100135.56;;;25.82;60.33
76603;BME280;65075;48.390;17.598;2023-08-20T02:41:00;100134.66;;;26.84;58.14
76603;BME280;65075;48.390;17.598;2023-08-20T02:43:26;100113.44;;;26.51;58.14
76603;BME280;65075;48.390;17.598;2023-08-20T02:45:52;100126.94;;;27.31;56.44
76603;BME280;65075;48.390;17.598;2023-08-20T02:48:18;100133.41;;;26.50;57.39
76603;BME280;65075;48.390;17.598;2023-08-20T02:50:43;100140.47;;;26.00;60.18
76603;BME280;65075;48.390;17.598;2023-08-20T02:53:09;100136.91;;;26.94;56.54
76603;BME280;65075;48.390;17.598;2023-08-20T02:55:34;100144.69;;;26.22;58.82
76603;BME280;65075;48.390;17.598;2023-08-20T02:58:00;100142.88;;;26.30;58.75
76603;BME280;65075;48.390;17.598;2023-08-20T03:00:27;100152.00;;;26.58;57.87
76603;BME280;65075;48.390;17.598;2023-08-20T03:02:53;100141.72;;;26.62;58.00
76603;BME280;65075;48.390;17.598;2023-08-20T03:05:19;100144.38;;;27.05;56.59
76603;BME280;65075;48.390;17.598;2023-08-20T03:07:45;100144.63;;;25.91;59.57
76603;BME280;65075;48.390;17.598;2023-08-20T03:10:10;100140.13;;;26.02;59.99
76603;BME280;65075;48.390;17.598;2023-08-20T03:12:37;100156.72;;;26.54;58.07
76603;BME280;65075;48.390;17.598;2023-08-20T03:15:03;100141.19;;;27.07;56.83
76603;BME280;65075;48.390;17.598;2023-08-20T03:17:30;100147.03;;;26.36;58.18
76603;BME280;65075;48.390;17.598;2023-08-20T03:19:58;100147.50;;;27.39;55.10
76603;BME280;65075;48.390;17.598;2023-08-20T03:22:26;100164.66;;;27.18;55.74
76603;BME280;65075;48.390;17.598;2023-08-20T03:24:54;100149.50;;;27.38;55.36
76603;BME280;65075;48.390;17.598;2023-08-20T03:27:19;100147.56;;;26.41;58.03
76603;BME280;65075;48.390;17.598;2023-08-20T03:29:45;100151.41;;;25.78;60.64
76603;BME280;65075;48.390;17.598;2023-08-20T03:32:11;100151.88;;;26.23;58.30
76603;BME280;65075;48.390;17.598;2023-08-20T03:34:57;100113.66;;;25.28;60.65
76603;BME280;65075;48.390;17.598;2023-08-20T03:37:25;100150.06;;;26.78;57.17
76603;BME280;65075;48.390;17.598;2023-08-20T03:39:51;100147.63;;;26.13;59.23
76603;BME280;65075;48.390;17.598;2023-08-20T03:42:18;100148.25;;;25.51;61.17
76603;BME280;65075;48.390;17.598;2023-08-20T03:44:43;100152.44;;;25.57;61.61
76603;BME280;65075;48.390;17.598;2023-08-20T03:47:10;100154.88;;;26.61;57.67
76603;BME280;65075;48.390;17.598;2023-08-20T03:49:36;100133.34;;;25.59;60.18
76603;BME280;65075;48.390;17.598;2023-08-20T03:52:01;100121.22;;;24.07;65.51
76603;BME280;65075;48.390;17.598;2023-08-20T03:54:28;100135.13;;;23.94;66.05
76603;BME280;65075;48.390;17.598;2023-08-20T03:56:55;100146.16;;;25.88;60.23
76603;BME280;65075;48.390;17.598;2023-08-20T03:59:22;100142.91;;;24.58;64.20
76603;BME280;65075;48.390;17.598;2023-08-20T04:01:47;100132.09;;;23.34;68.90
76603;BME280;65075;48.390;17.598;2023-08-20T04:04:13;100140.31;;;23.30;69.20
76603;BME280;65075;48.390;17.598;2023-08-20T04:06:38;100112.78;;;23.50;70.29
76603;BME280;65075;48.390;17.598;2023-08-20T04:09:06;100124.88;;;23.86;69.17
76603;BME280;65075;48.390;17.598;2023-08-20T04:11:32;100137.22;;;23.23;71.34
76603;BME280;65075;48.390;17.598;2023-08-20T04:13:57;100142.31;;;22.80;75.08
76603;BME280;65075;48.390;17.598;2023-08-20T04:16:24;100153.34;;;23.80;70.99
76603;BME280;65075;48.390;17.598;2023-08-20T04:18:49;100153.41;;;25.37;64.93
76603;BME280;65075;48.390;17.598;2023-08-20T04:21:15;100150.22;;;23.61;70.26
76603;BME280;65075;48.390;17.598;2023-08-20T04:23:42;100152.09;;;23.69;70.51
76603;BME280;65075;48.390;17.598;2023-08-20T04:26:07;100153.78;;;23.82;68.53
76603;BME280;65075;48.390;17.598;2023-08-20T04:28:33;100097.03;;;23.12;71.83
76603;BME280;65075;48.390;17.598;2023-08-20T04:30:59;100120.69;;;22.10;76.60
76603;BME280;65075;48.390;17.598;2023-08-20T04:33:25;100151.34;;;22.98;74.96
76603;BME280;65075;48.390;17.598;2023-08-20T04:35:51;100152.34;;;23.43;72.33
76603;BME280;65075;48.390;17.598;2023-08-20T04:38:17;100166.38;;;23.67;72.44
76603;BME280;65075;48.390;17.598;2023-08-20T04:40:48;100179.72;;;25.36;65.70
76603;BME280;65075;48.390;17.598;2023-08-20T04:43:13;100170.25;;;26.67;60.61
76603;BME280;65075;48.390;17.598;2023-08-20T04:45:40;100173.34;;;27.13;58.60
76603;BME280;65075;48.390;17.598;2023-08-20T04:48:07;100181.78;;;26.97;58.37
76603;BME280;65075;48.390;17.598;2023-08-20T04:50:34;100192.47;;;27.61;56.67
76603;BME280;65075;48.390;17.598;2023-08-20T04:53:00;100184.00;;;27.96;55.44
76603;BME280;65075;48.390;17.598;2023-08-20T04:55:27;100184.56;;;27.13;57.76
76603;BME280;65075;48.390;17.598;2023-08-20T04:57:54;100184.03;;;26.60;58.65
76603;BME280;65075;48.390;17.598;2023-08-20T05:00:22;100181.09;;;28.12;55.07
76603;BME280;65075;48.390;17.598;2023-08-20T05:02:48;100186.13;;;27.45;56.32
76603;BME280;65075;48.390;17.598;2023-08-20T05:05:15;100159.91;;;26.71;57.44
76603;BME280;65075;48.390;17.598;2023-08-20T05:07:40;100189.50;;;27.54;55.82
76603;BME280;65075;48.390;17.598;2023-08-20T05:10:09;100187.91;;;27.72;55.89
76603;BME280;65075;48.390;17.598;2023-08-20T05:12:35;100180.88;;;28.01;54.47
76603;BME280;65075;48.390;17.598;2023-08-20T05:15:01;100195.16;;;28.34;53.70
76603;BME280;65075;48.390;17.598;2023-08-20T05:17:28;100147.59;;;27.80;53.57
76603;BME280;65075;48.390;17.598;2023-08-20T05:19:54;100198.09;;;27.80;54.96
76603;BME280;65075;48.390;17.598;2023-08-20T05:22:21;100189.75;;;28.45;53.39
76603;BME280;65075;48.390;17.598;2023-08-20T05:24:46;100195.09;;;26.85;57.72
76603;BME280;65075;48.390;17.598;2023-08-20T05:27:15;100202.16;;;25.64;62.95
76603;BME280;65075;48.390;17.598;2023-08-20T05:29:43;100207.53;;;27.53;57.68
76603;BME280;65075;48.390;17.598;2023-08-20T05:32:09;100205.63;;;27.96;56.19
76603;BME280;65075;48.390;17.598;2023-08-20T05:34:35;100213.28;;;29.05;53.06
76603;BME280;65075;48.390;17.598;2023-08-20T05:37:02;100190.13;;;28.66;53.84
76603;BME280;65075;48.390;17.598;2023-08-20T05:39:37;100205.78;;;28.45;53.83
76603;BME280;65075;48.390;17.598;2023-08-20T05:42:04;100217.50;;;27.35;57.08
76603;BME280;65075;48.390;17.598;2023-08-20T05:44:29;100185.28;;;28.63;53.28
76603;BME280;65075;48.390;17.598;2023-08-20T05:46:56;100210.94;;;31.14;47.46
76603;BME280;65075;48.390;17.598;2023-08-20T05:49:21;100218.53;;;30.26;50.00
76603;BME280;65075;48.390;17.598;2023-08-20T05:51:47;100226.16;;;30.22;50.57
76603;BME280;65075;48.390;17.598;2023-08-20T05:54:12;100221.22;;;32.29;45.11
76603;BME280;65075;48.390;17.598;2023-08-20T05:56:38;100209.19;;;30.95;48.90
76603;BME280;65075;48.390;17.598;2023-08-20T05:59:03;100219.97;;;32.09;47.13
76603;BME280;65075;48.390;17.598;2023-08-20T06:01:29;100189.28;;;32.08;45.48
76603;BME280;65075;48.390;17.598;2023-08-20T06:03:55;100235.81;;;31.01;48.53
76603;BME280;65075;48.390;17.598;2023-08-20T06:06:21;100223.34;;;32.64;46.50
76603;BME280;65075;48.390;17.598;2023-08-20T06:08:47;100207.88;;;32.16;45.35
76603;BME280;65075;48.390;17.598;2023-08-20T06:11:12;100233.38;;;30.23;50.10
76603;BME280;65075;48.390;17.598;2023-08-20T06:13:38;100215.78;;;28.23;56.55
76603;BME280;65075;48.390;17.598;2023-08-20T06:16:07;100204.53;;;30.33;50.29
76603;BME280;65075;48.390;17.598;2023-08-20T06:18:33;100234.69;;;29.95;51.93
76603;BME280;65075;48.390;17.598;2023-08-20T06:20:59;100226.28;;;31.20;48.51
76603;BME280;65075;48.390;17.598;2023-08-20T06:23:25;100213.81;;;31.93;46.94
76603;BME280;65075;48.390;17.598;2023-08-20T06:25:51;100233.34;;;33.82;42.07
76603;BME280;65075;48.390;17.598;2023-08-20T06:28:17;100225.94;;;34.82;40.72
76603;BME280;65075;48.390;17.598;2023-08-20T06:30:44;100220.44;;;33.67;41.91
76603;BME280;65075;48.390;17.598;2023-08-20T06:33:10;100233.03;;;33.02;44.42
76603;BME280;65075;48.390;17.598;2023-08-20T06:35:36;100237.47;;;33.38;43.56
76603;BME280;65075;48.390;17.598;2023-08-20T06:38:03;100238.88;;;34.07;41.95
76603;BME280;65075;48.390;17.598;2023-08-20T06:40:29;100222.56;;;34.39;39.58
76603;BME280;65075;48.390;17.598;2023-08-20T06:42:55;100238.97;;;35.20;39.51
76603;BME280;65075;48.390;17.598;2023-08-20T06:45:21;100238.16;;;33.88;41.75
76603;BME280;65075;48.390;17.598;2023-08-20T06:47:48;100245.91;;;34.61;40.79
76603;BME280;65075;48.390;17.598;2023-08-20T06:50:13;100219.59;;;35.12;40.04
76603;BME280;65075;48.390;17.598;2023-08-20T06:52:39;100235.81;;;32.53;45.52
76603;BME280;65075;48.390;17.598;2023-08-20T06:55:05;100237.03;;;33.61;43.63
76603;BME280;65075;48.390;17.598;2023-08-20T06:57:31;100236.63;;;35.56;38.84
76603;BME280;65075;48.390;17.598;2023-08-20T06:59:58;100245.53;;;37.52;35.11
76603;BME280;65075;48.390;17.598;2023-08-20T07:02:23;100237.44;;;36.51;36.23
76603;BME280;65075;48.390;17.598;2023-08-20T07:04:49;100249.81;;;36.37;37.32
76603;BME280;65075;48.390;17.598;2023-08-20T07:07:14;100232.00;;;36.63;35.74
76603;BME280;65075;48.390;17.598;2023-08-20T07:09:40;100260.28;;;36.44;36.76
76603;BME280;65075;48.390;17.598;2023-08-20T07:12:06;100250.38;;;37.09;36.07
76603;BME280;65075;48.390;17.598;2023-08-20T07:14:32;100251.03;;;36.36;38.04
76603;BME280;65075;48.390;17.598;2023-08-20T07:16:59;100255.41;;;36.44;37.32
76603;BME280;65075;48.390;17.598;2023-08-20T07:19:25;100260.00;;;34.75;39.73
76603;BME280;65075;48.390;17.598;2023-08-20T07:21:50;100245.88;;;36.28;37.18
76603;BME280;65075;48.390;17.598;2023-08-20T07:24:16;100252.19;;;34.20;41.40
76603;BME280;65075;48.390;17.598;2023-08-20T07:26:41;100262.69;;;36.45;37.91
76603;BME280;65075;48.390;17.598;2023-08-20T07:29:09;100260.78;;;36.05;37.43
76603;BME280;65075;48.390;17.598;2023-08-20T07:31:34;100230.28;;;36.93;35.67
76603;BME280;65075;48.390;17.598;2023-08-20T07:34:01;100264.84;;;35.70;38.01
76603;BME280;65075;48.390;17.598;2023-08-20T07:36:28;100265.03;;;37.07;35.87
76603;BME280;65075;48.390;17.598;2023-08-20T07:38:55;100261.13;;;36.98;35.91
76603;BME280;65075;48.390;17.598;2023-08-20T07:41:23;100244.69;;;37.55;35.58
76603;BME280;65075;48.390;17.598;2023-08-20T07:43:49;100226.19;;;37.44;34.73
76603;BME280;65075;48.390;17.598;2023-08-20T07:46:15;100267.81;;;39.40;31.35
76603;BME280;65075;48.390;17.598;2023-08-20T07:48:42;100271.00;;;38.77;32.32
76603;BME280;65075;48.390;17.598;2023-08-20T07:51:08;100251.91;;;36.63;35.31
76603;BME280;65075;48.390;17.598;2023-08-20T07:53:35;100258.53;;;39.04;31.36
76603;BME280;65075;48.390;17.598;2023-08-20T07:56:01;100252.28;;;37.81;33.08
76603;BME280;65075;48.390;17.598;2023-08-20T07:58:27;100253.28;;;38.86;31.04
76603;BME280;65075;48.390;17.598;2023-08-20T08:00:55;100255.69;;;34.49;39.19
76603;BME280;65075;48.390;17.598;2023-08-20T08:03:20;100231.34;;;37.92;34.18
76603;BME280;65075;48.390;17.598;2023-08-20T08:05:48;100236.91;;;40.09;29.80
76603;BME280;65075;48.390;17.598;2023-08-20T08:08:18;100249.06;;;38.90;32.05
76603;BME280;65075;48.390;17.598;2023-08-20T08:10:45;100256.00;;;35.65;38.56
76603;BME280;65075;48.390;17.598;2023-08-20T08:13:15;100250.47;;;37.25;34.67
76603;BME280;65075;48.390;17.598;2023-08-20T08:15:41;100241.16;;;35.84;37.05
76603;BME280;65075;48.390;17.598;2023-08-20T08:18:08;100207.44;;;36.46;35.48
76603;BME280;65075;48.390;17.598;2023-08-20T08:20:34;100247.47;;;38.18;32.86
76603;BME280;65075;48.390;17.598;2023-08-20T08:23:01;100237.97;;;38.44;32.20
76603;BME280;65075;48.390;17.598;2023-08-20T08:25:28;100246.94;;;38.78;32.17
76603;BME280;65075;48.390;17.598;2023-08-20T08:27:55;100246.50;;;38.44;31.13
76603;BME280;65075;48.390;17.598;2023-08-20T08:30:21;100253.91;;;40.41;30.61
76603;BME280;65075;48.390;17.598;2023-08-20T08:32:47;100241.13;;;36.21;34.42
76603;BME280;65075;48.390;17.598;2023-08-20T08:35:12;100250.38;;;36.25;35.35
76603;BME280;65075;48.390;17.598;2023-08-20T08:37:39;100248.84;;;38.29;32.35
76603;BME280;65075;48.390;17.598;2023-08-20T08:40:05;100255.16;;;39.41;31.56
76603;BME280;65075;48.390;17.598;2023-08-20T08:42:32;100252.47;;;40.08;29.97
76603;BME280;65075;48.390;17.598;2023-08-20T08:44:59;100240.09;;;37.81;33.32
76603;BME280;65075;48.390;17.598;2023-08-20T08:47:27;100242.31;;;39.78;30.79
76603;BME280;65075;48.390;17.598;2023-08-20T08:49:56;100239.00;;;36.25;36.55
76603;BME280;65075;48.390;17.598;2023-08-20T08:52:26;100230.63;;;37.21;34.89
76603;BME280;65075;48.390;17.598;2023-08-20T08:54:53;100238.84;;;38.41;30.80
76603;BME280;65075;48.390;17.598;2023-08-20T08:57:18;100220.63;;;37.76;31.45
76603;BME280;65075;48.390;17.598;2023-08-20T08:59:44;100237.75;;;36.30;35.55
76603;BME280;65075;48.390;17.598;2023-08-20T09:02:16;100239.28;;;38.91;31.88
76603;BME280;65075;48.390;17.598;2023-08-20T09:04:42;100236.97;;;41.56;28.16
76603;BME280;65075;48.390;17.598;2023-08-20T09:07:13;100243.19;;;38.98;31.97
76603;BME280;65075;48.390;17.598;2023-08-20T09:09:45;100243.22;;;37.87;33.92
76603;BME280;65075;48.390;17.598;2023-08-20T09:12:19;100229.63;;;39.63;29.91
76603;BME280;65075;48.390;17.598;2023-08-20T09:14:50;100252.91;;;36.77;34.95
76603;BME280;65075;48.390;17.598;2023-08-20T09:17:16;100254.59;;;37.90;32.87
76603;BME280;65075;48.390;17.598;2023-08-20T09:19:44;100257.91;;;37.42;34.06
76603;BME280;65075;48.390;17.598;2023-08-20T09:22:13;100246.75;;;39.18;30.36
76603;BME280;65075;48.390;17.598;2023-08-20T09:24:54;100249.81;;;37.17;33.41
76603;BME280;65075;48.390;17.598;2023-08-20T09:27:21;100258.22;;;37.91;33.19
76603;BME280;65075;48.390;17.598;2023-08-20T09:29:55;100247.91;;;40.23;29.22
76603;BME280;65075;48.390;17.598;2023-08-20T09:32:27;100259.88;;;41.09;29.04
76603;BME280;65075;48.390;17.598;2023-08-20T09:34:56;100256.97;;;42.56;26.52
76603;BME280;65075;48.390;17.598;2023-08-20T09:37:23;100238.00;;;41.16;28.04
76603;BME280;65075;48.390;17.598;2023-08-20T09:39:50;100246.59;;;40.90;27.55
76603;BME280;65075;48.390;17.598;2023-08-20T09:42:16;100254.41;;;40.52;27.40
76603;BME280;65075;48.390;17.598;2023-08-20T09:44:54;100242.56;;;40.37;28.86
76603;BME280;65075;48.390;17.598;2023-08-20T09:47:23;100237.13;;;41.96;26.37
76603;BME280;65075;48.390;17.598;2023-08-20T09:49:53;100261.47;;;42.13;24.89
76603;BME280;65075;48.390;17.598;2023-08-20T09:52:25;100250.09;;;40.31;28.61
76603;BME280;65075;48.390;17.598;2023-08-20T09:55:13;100247.34;;;36.39;34.19
76603;BME280;65075;48.390;17.598;2023-08-20T09:57:41;100243.09;;;39.62;29.16
76603;BME280;65075;48.390;17.598;2023-08-20T10:00:09;100242.91;;;40.39;28.00
76603;BME280;65075;48.390;17.598;2023-08-20T10:02:35;100235.59;;;40.76;25.59
76603;BME280;65075;48.390;17.598;2023-08-20T10:05:02;100237.59;;;41.39;26.66
76603;BME280;65075;48.390;17.598;2023-08-20T10:07:30;100235.06;;;41.97;25.51
76603;BME280;65075;48.390;17.598;2023-08-20T10:10:01;100241.00;;;42.24;25.53
76603;BME280;65075;48.390;17.598;2023-08-20T10:12:30;100239.81;;;43.32;23.22
76603;BME280;65075;48.390;17.598;2023-08-20T10:14:58;100238.00;;;42.58;24.61
76603;BME280;65075;48.390;17.598;2023-08-20T10:17:25;100242.81;;;40.43;26.27
76603;BME280;65075;48.390;17.598;2023-08-20T10:19:58;100233.53;;;40.89;25.71
76603;BME280;65075;48.390;17.598;2023-08-20T10:22:41;100230.72;;;37.80;30.63
76603;BME280;65075;48.390;17.598;2023-08-20T10:25:09;100234.25;;;40.68;25.86
76603;BME280;65075;48.390;17.598;2023-08-20T10:27:40;100232.19;;;41.06;25.27
76603;BME280;65075;48.390;17.598;2023-08-20T10:30:27;100224.00;;;39.75;27.75
76603;BME280;65075;48.390;17.598;2023-08-20T10:32:54;100214.50;;;41.55;23.68
76603;BME280;65075;48.390;17.598;2023-08-20T10:35:28;100221.00;;;38.37;30.52
76603;BME280;65075;48.390;17.598;2023-08-20T10:38:08;100220.50;;;38.58;29.63
76603;BME280;65075;48.390;17.598;2023-08-20T10:40:58;100218.94;;;40.49;26.35
76603;BME280;65075;48.390;17.598;2023-08-20T10:43:37;100215.28;;;39.66;27.17
76603;BME280;65075;48.390;17.598;2023-08-20T10:46:14;100219.63;;;41.60;24.15
76603;BME280;65075;48.390;17.598;2023-08-20T10:48:42;100205.84;;;38.40;26.43
76603;BME280;65075;48.390;17.598;2023-08-20T10:51:26;100228.09;;;39.13;26.27
76603;BME280;65075;48.390;17.598;2023-08-20T10:54:02;100220.31;;;37.94;27.96
76603;BME280;65075;48.390;17.598;2023-08-20T10:56:41;100220.69;;;40.31;24.60
76603;BME280;65075;48.390;17.598;2023-08-20T10:59:15;100204.38;;;41.29;22.94
76603;BME280;65075;48.390;17.598;2023-08-20T11:01:49;100210.38;;;39.67;25.25
76603;BME280;65075;48.390;17.598;2023-08-20T11:04:18;100198.72;;;38.48;27.15
76603;BME280;65075;48.390;17.598;2023-08-20T11:06:45;100191.19;;;37.82;27.86
76603;BME280;65075;48.390;17.598;2023-08-20T11:09:13;100196.38;;;39.97;25.31
76603;BME280;65075;48.390;17.598;2023-08-20T11:11:39;100201.69;;;40.87;25.41
76603;BME280;65075;48.390;17.598;2023-08-20T11:14:13;100191.66;;;41.30;23.66
76603;BME280;65075;48.390;17.598;2023-08-20T11:16:39;100176.06;;;40.96;23.86
76603;BME280;65075;48.390;17.598;2023-08-20T11:19:05;100166.16;;;40.50;24.61
76603;BME280;65075;48.390;17.598;2023-08-20T11:21:41;100192.84;;;39.20;25.88
76603;BME280;65075;48.390;17.598;2023-08-20T11:24:08;100194.56;;;38.85;26.91
76603;BME280;65075;48.390;17.598;2023-08-20T11:26:42;100193.19;;;39.95;24.89
76603;BME280;65075;48.390;17.598;2023-08-20T11:29:13;100202.75;;;40.18;24.55
76603;BME280;65075;48.390;17.598;2023-08-20T11:31:41;100181.84;;;39.92;25.41
76603;BME280;65075;48.390;17.598;2023-08-20T11:34:08;100184.19;;;40.10;25.13
76603;BME280;65075;48.390;17.598;2023-08-20T11:36:34;100194.41;;;39.82;25.66
76603;BME280;65075;48.390;17.598;2023-08-20T11:39:02;100183.63;;;40.15;25.43
76603;BME280;65075;48.390;17.598;2023-08-20T11:41:28;100176.91;;;36.77;29.05
76603;BME280;65075;48.390;17.598;2023-08-20T11:43:55;100185.88;;;38.40;28.22
76603;BME280;65075;48.390;17.598;2023-08-20T11:46:23;100192.00;;;39.07;25.91
76603;BME280;65075;48.390;17.598;2023-08-20T11:49:20;100184.31;;;39.04;25.04
76603;BME280;65075;48.390;17.598;2023-08-20T11:51:51;100191.34;;;38.99;24.90
76603;BME280;65075;48.390;17.598;2023-08-20T11:54:18;100184.16;;;38.78;24.73
76603;BME280;65075;48.390;17.598;2023-08-20T11:57:01;100177.56;;;38.81;25.63
76603;BME280;65075;48.390;17.598;2023-08-20T11:59:28;100175.81;;;39.16;25.75
76603;BME280;65075;48.390;17.598;2023-08-20T12:01:59;100159.41;;;36.55;29.27
76603;BME280;65075;48.390;17.598;2023-08-20T12:04:30;100180.91;;;38.44;28.11
76603;BME280;65075;48.390;17.598;2023-08-20T12:07:09;100182.72;;;37.16;28.16
76603;BME280;65075;48.390;17.598;2023-08-20T12:09:36;100154.03;;;36.84;29.25
76603;BME280;65075;48.390;17.598;2023-08-20T12:12:05;100163.59;;;36.94;29.41
76603;BME280;65075;48.390;17.598;2023-08-20T12:14:36;100166.72;;;38.41;27.45
76603;BME280;65075;48.390;17.598;2023-08-20T12:17:02;100172.56;;;39.75;24.34
76603;BME280;65075;48.390;17.598;2023-08-20T12:19:31;100138.94;;;36.37;28.41
76603;BME280;65075;48.390;17.598;2023-08-20T12:21:58;100164.75;;;38.02;26.52
76603;BME280;65075;48.390;17.598;2023-08-20T12:24:23;100159.66;;;38.29;26.04
76603;BME280;65075;48.390;17.598;2023-08-20T12:26:49;100161.13;;;38.85;26.46
76603;BME280;65075;48.390;17.598;2023-08-20T12:29:15;100172.16;;;38.67;27.18
76603;BME280;65075;48.390;17.598;2023-08-20T12:31:41;100162.38;;;38.52;26.46
76603;BME280;65075;48.390;17.598;2023-08-20T12:34:07;100160.56;;;39.93;24.07
76603;BME280;65075;48.390;17.598;2023-08-20T12:36:35;100152.88;;;38.23;26.44
76603;BME280;65075;48.390;17.598;2023-08-20T12:39:02;100155.09;;;38.83;25.90
76603;BME280;65075;48.390;17.598;2023-08-20T12:41:29;100151.69;;;38.72;26.30
76603;BME280;65075;48.390;17.598;2023-08-20T12:43:55;100138.88;;;37.14;28.34
76603;BME280;65075;48.390;17.598;2023-08-20T12:46:21;100121.06;;;36.63;28.15
76603;BME280;65075;48.390;17.598;2023-08-20T12:48:48;100138.66;;;38.55;26.24
76603;BME280;65075;48.390;17.598;2023-08-20T12:51:14;100133.56;;;37.95;25.59
76603;BME280;65075;48.390;17.598;2023-08-20T12:53:42;100133.47;;;36.96;28.30
76603;BME280;65075;48.390;17.598;2023-08-20T12:56:08;100134.00;;;38.45;26.75